Time;durP1;ratioP1;P1;durP2;ratioP2;P2;SDS_P1;SDS_P2;PMS_P1;PMS_P2;Temp;Humidity;BMP_temperature;BMP_pressure;BME280_temperature;BME280_humidity;BME280_pressure;Samples;Min_cycle;Max_cycle;Signal;HPM_P1;HPM_P2
2023/04/04 00:01:08;;;;;;;9.57;7.00;;;;;;;;;;5006025;28;20034;-77
2023/04/04 00:03:33;;;;;;;;;;;;;;;;;;4993319;28;20105;-76
2023/04/04 00:05:59;;;;;;;10.40;7.93;;;;;;;;;;4992239;28;19918;-76
2023/04/04 00:08:24;;;;;;;11.10;7.88;;;;;;;;;;5000001;28;20117;-76
2023/04/04 00:10:49;;;;;;;;;;;;;;;;;;4996572;28;20058;-76
2023/04/04 00:13:15;;;;;;;10.77;8.35;;;;;;;;;;4992456;28;19914;-77
2023/04/04 00:15:40;;;;;;;11.18;8.35;;;;;;;;;;4995614;28;20084;-76
2023/04/04 00:18:06;;;;;;;10.65;7.60;;;;;;;;;;4994203;28;20120;-77
2023/04/04 00:20:31;;;;;;;;;;;;;;;;;;4994579;28;20082;-76
2023/04/04 00:22:57;;;;;;;10.07;7.53;;;;;;;;;;4995814;28;19916;-76
2023/04/04 00:25:23;;;;;;;10.45;7.90;;;;;;;;;;4995690;28;20112;-77
2023/04/04 00:27:48;;;;;;;8.38;6.85;;;;;;;;;;4995735;28;20038;-76
2023/04/04 00:30:14;;;;;;;;;;;;;;;;;;4996888;28;20038;-76
2023/04/04 00:32:40;;;;;;;11.02;7.57;;;;;;;;;;5026060;28;19924;-77
2023/04/04 00:35:06;;;;;;;10.65;7.70;;;;;;;;;;4997979;28;20371;-77
2023/04/04 00:37:31;;;;;;;;;;;;;;;;;;5000781;28;20026;-77
2023/04/04 00:39:57;;;;;;;12.02;8.60;;;;;;;;;;4998730;28;19914;-76
2023/04/04 00:42:22;;;;;;;9.35;8.23;;;;;;;;;;4999312;28;20022;-77
2023/04/04 00:44:50;;;;;;;9.40;8.48;;;;;;;;;;4991643;28;20521;-76
2023/04/04 00:47:16;;;;;;;9.63;8.27;;;;;;;;;;4975227;28;20034;-76
2023/04/04 00:49:43;;;;;;;10.48;8.30;;;;;;;;;;5000824;28;20097;-76
2023/04/04 00:52:09;;;;;;;8.98;7.07;;;;;;;;;;4996289;28;20034;-76
2023/04/04 00:54:35;;;;;;;8.18;7.32;;;;;;;;;;4991545;28;20040;-76
2023/04/04 00:57:00;;;;;;;;;;;;;;;;;;4975067;28;20042;-77
2023/04/04 00:59:26;;;;;;;9.25;8.35;;;;;;;;;;4991771;28;19913;-77
2023/04/04 01:01:52;;;;;;;8.52;7.32;;;;;;;;;;4997866;28;20045;-77
2023/04/04 01:04:17;;;;;;;8.13;7.28;;;;;;;;;;4967477;28;20034;-76
2023/04/04 01:06:44;;;;;;;;;;;;;;;;;;5002492;28;20496;-76
2023/04/04 01:09:10;;;;;;;9.80;7.88;;;;;;;;;;4979971;28;19918;-76
2023/04/04 01:11:36;;;;;;;;;;;;;;;;;;5005570;28;20021;-77
2023/04/04 01:14:02;;;;;;;12.07;8.20;;;;;;;;;;4989819;28;19920;-76
2023/04/04 01:16:28;;;;;;;10.63;8.35;;;;;;;;;;4994135;28;20750;-77
2023/04/04 01:18:53;;;;;;;9.70;8.60;;;;;;;;;;4993557;28;20042;-75
2023/04/04 01:21:20;;;;;;;;;;;;;;;;;;4977282;28;20121;-75
2023/04/04 01:23:49;;;;;;;8.43;7.50;;;;;;;;;;4993249;28;19922;-75
2023/04/04 01:26:15;;;;;;;12.80;7.85;;;;;;;;;;4997039;28;20289;-75
2023/04/04 01:28:41;;;;;;;;;;;;;;;;;;4992869;28;20034;-74
2023/04/04 01:31:11;;;;;;;10.35;7.82;;;;;;;;;;4992185;28;20293;-75
2023/04/04 01:33:40;;;;;;;9.63;7.72;;;;;;;;;;4995987;28;20065;-75
2023/04/04 01:36:20;;;;;;;10.18;7.40;;;;;;;;;;4983615;28;20042;-75
2023/04/04 01:38:53;;;;;;;8.02;7.20;;;;;;;;;;4977785;28;20056;-75
2023/04/04 01:41:19;;;;;;;8.02;7.22;;;;;;;;;;4978685;28;20056;-74
2023/04/04 01:43:51;;;;;;;8.35;7.25;;;;;;;;;;4997628;28;20032;-77
2023/04/04 01:46:17;;;;;;;8.95;7.38;;;;;;;;;;4994477;28;20041;-78
2023/04/04 01:48:45;;;;;;;8.70;7.43;;;;;;;;;;5000780;28;20025;-77
2023/04/04 01:51:10;;;;;;;8.77;7.88;;;;;;;;;;4977215;28;20130;-75
2023/04/04 01:53:36;;;;;;;8.35;7.20;;;;;;;;;;4984660;28;20448;-75
2023/04/04 01:56:02;;;;;;;8.68;7.00;;;;;;;;;;4996041;28;20034;-75
2023/04/04 01:58:30;;;;;;;7.88;7.07;;;;;;;;;;4991912;28;20061;-76
2023/04/04 02:00:56;;;;;;;9.20;7.63;;;;;;;;;;4996304;28;20057;-75
2023/04/04 02:03:21;;;;;;;9.20;7.35;;;;;;;;;;5002298;28;20430;-75
2023/04/04 02:05:47;;;;;;;10.23;7.95;;;;;;;;;;4997926;28;20038;-76
2023/04/04 02:08:14;;;;;;;9.25;7.45;;;;;;;;;;5005122;28;20026;-75
2023/04/04 02:10:48;;;;;;;9.75;7.88;;;;;;;;;;5001470;28;20541;-77
2023/04/04 02:13:13;;;;;;;10.48;8.63;;;;;;;;;;4999212;28;20043;-75
2023/04/04 02:15:39;;;;;;;10.00;8.73;;;;;;;;;;4995815;28;20574;-75
2023/04/04 02:18:05;;;;;;;11.05;8.95;;;;;;;;;;4988366;28;20061;-76
2023/04/04 02:20:30;;;;;;;;;;;;;;;;;;4989934;28;20037;-75
2023/04/04 02:22:56;;;;;;;9.98;8.77;;;;;;;;;;4995788;28;19914;-75
2023/04/04 02:25:21;;;;;;;;;;;;;;;;;;4978235;28;20022;-75
2023/04/04 02:27:46;;;;;;;12.30;9.52;;;;;;;;;;4995967;28;19964;-75
2023/04/04 02:30:12;;;;;;;;;;;;;;;;;;4994881;28;20055;-76
2023/04/04 02:32:38;;;;;;;11.30;8.95;;;;;;;;;;5026741;28;19918;-76
2023/04/04 02:35:06;;;;;;;11.45;9.68;;;;;;;;;;4994262;28;20038;-75
2023/04/04 02:37:32;;;;;;;11.90;10.57;;;;;;;;;;4993983;28;20022;-75
2023/04/04 02:39:59;;;;;;;13.05;10.20;;;;;;;;;;4995069;28;20046;-76
2023/04/04 02:42:25;;;;;;;12.73;9.60;;;;;;;;;;4994549;28;20096;-75
2023/04/04 02:44:50;;;;;;;13.75;10.30;;;;;;;;;;4994333;28;20117;-76
2023/04/04 02:47:17;;;;;;;16.45;10.82;;;;;;;;;;4977663;28;20039;-75
2023/04/04 02:49:44;;;;;;;13.75;11.32;;;;;;;;;;4977086;28;20033;-76
2023/04/04 02:52:11;;;;;;;13.95;11.70;;;;;;;;;;4993039;28;20038;-76
2023/04/04 02:54:40;;;;;;;19.15;12.73;;;;;;;;;;5006965;28;20125;-76
2023/04/04 02:57:08;;;;;;;14.00;12.23;;;;;;;;;;5006404;28;20030;-76
2023/04/04 02:59:34;;;;;;;14.93;13.10;;;;;;;;;;5004766;28;20508;-75
2023/04/04 03:02:00;;;;;;;15.18;13.27;;;;;;;;;;5008164;28;20413;-74
2023/04/04 03:04:27;;;;;;;15.57;13.98;;;;;;;;;;5003700;28;20044;-74
2023/04/04 03:06:54;;;;;;;15.73;13.43;;;;;;;;;;4990208;28;20497;-74
2023/04/04 03:09:20;;;;;;;15.45;13.05;;;;;;;;;;5005453;28;20057;-74
2023/04/04 03:11:46;;;;;;;19.48;14.82;;;;;;;;;;4998321;28;20045;-76
2023/04/04 03:14:12;;;;;;;15.25;12.82;;;;;;;;;;4994410;28;20033;-77
2023/04/04 03:16:38;;;;;;;15.77;12.73;;;;;;;;;;4995380;28;20037;-76
2023/04/04 03:19:05;;;;;;;12.75;11.48;;;;;;;;;;4976132;28;20027;-76
2023/04/04 03:21:30;;;;;;;17.38;12.23;;;;;;;;;;4993533;28;20038;-76
2023/04/04 03:23:57;;;;;;;14.68;12.15;;;;;;;;;;4977642;28;20510;-76
2023/04/04 03:26:23;;;;;;;14.40;11.73;;;;;;;;;;4974126;28;20502;-77
2023/04/04 03:28:49;;;;;;;16.15;12.32;;;;;;;;;;4990849;28;20054;-76
2023/04/04 03:31:18;;;;;;;15.82;12.55;;;;;;;;;;4992795;28;20038;-76
2023/04/04 03:33:44;;;;;;;15.00;12.32;;;;;;;;;;4992008;28;20077;-76
2023/04/04 03:36:11;;;;;;;15.63;12.27;;;;;;;;;;4994272;28;20517;-76
2023/04/04 03:38:36;;;;;;;16.52;14.02;;;;;;;;;;4994550;28;20027;-76
2023/04/04 03:41:02;;;;;;;18.55;14.75;;;;;;;;;;4993455;28;20038;-76
2023/04/04 03:43:29;;;;;;;18.30;15.63;;;;;;;;;;4994743;28;20025;-76
2023/04/04 03:45:59;;;;;;;20.35;15.88;;;;;;;;;;4991658;28;20045;-76
2023/04/04 03:48:24;;;;;;;20.52;15.48;;;;;;;;;;4997060;28;20046;-76
2023/04/04 03:50:49;;;;;;;20.20;14.85;;;;;;;;;;5005751;28;20034;-75
2023/04/04 03:53:15;;;;;;;19.38;15.50;;;;;;;;;;4996467;28;20034;-76
2023/04/04 03:55:41;;;;;;;;;;;;;;;;;;4994581;28;20046;-76
2023/04/04 03:58:06;;;;;;;18.35;14.10;;;;;;;;;;4992622;28;19960;-76
2023/04/04 04:00:32;;;;;;;;;;;;;;;;;;4975832;28;20437;-74
2023/04/04 04:02:57;;;;;;;20.75;15.38;;;;;;;;;;5022095;28;19921;-76
2023/04/04 04:05:23;;;;;;;;;;;;;;;;;;4986881;28;20565;-76
2023/04/04 04:07:51;;;;;;;18.08;14.70;;;;;;;;;;5007287;28;20285;-76
2023/04/04 04:10:17;;;;;;;19.92;16.10;;;;;;;;;;5010359;28;20034;-76
2023/04/04 04:12:42;;;;;;;21.80;16.88;;;;;;;;;;5004005;28;20455;-77
2023/04/04 04:15:08;;;;;;;20.83;16.85;;;;;;;;;;4986843;28;20038;-74
2023/04/04 04:17:39;;;;;;;19.42;16.52;;;;;;;;;;4973030;28;20466;-76
2023/04/04 04:20:08;;;;;;;21.85;17.52;;;;;;;;;;4975820;28;20034;-76
2023/04/04 04:22:38;;;;;;;21.92;15.82;;;;;;;;;;4991374;28;20026;-76
2023/04/04 04:25:04;;;;;;;18.85;15.00;;;;;;;;;;4976351;28;20390;-77
2023/04/04 04:27:30;;;;;;;17.75;12.60;;;;;;;;;;4972224;28;20726;-77
2023/04/04 04:29:56;;;;;;;;;;;;;;;;;;4984955;28;20042;-76
2023/04/04 04:32:21;;;;;;;19.88;15.10;;;;;;;;;;4993013;28;20319;-76
2023/04/04 04:34:51;;;;;;;20.17;15.82;;;;;;;;;;4993660;28;20097;-76
2023/04/04 04:37:22;;;;;;;23.67;16.52;;;;;;;;;;4993835;28;20449;-76
2023/04/04 04:39:52;;;;;;;18.40;15.30;;;;;;;;;;4993108;28;20039;-76
2023/04/04 04:42:35;;;;;;;18.95;14.82;;;;;;;;;;4970204;28;20034;-76
2023/04/04 04:45:02;;;;;;;21.10;16.02;;;;;;;;;;4998381;28;20096;-74
2023/04/04 04:47:31;;;;;;;18.77;14.50;;;;;;;;;;4974506;28;20030;-75
2023/04/04 04:49:59;;;;;;;20.15;15.98;;;;;;;;;;5002580;28;20366;-76
2023/04/04 04:52:37;;;;;;;21.67;16.33;;;;;;;;;;5001400;28;20026;-76
2023/04/04 04:55:03;;;;;;;21.20;16.02;;;;;;;;;;5000070;28;20026;-76
2023/04/04 04:57:28;;;;;;;;;;;;;;;;;;4994087;28;20022;-77
2023/04/04 04:59:56;;;;;;;21.27;16.33;;;;;;;;;;4995537;28;20317;-76
2023/04/04 05:02:24;;;;;;;19.42;15.70;;;;;;;;;;4978466;28;20410;-77
2023/04/04 05:04:50;;;;;;;;;;;;;;;;;;4998067;28;20124;-76
2023/04/04 05:07:15;;;;;;;17.70;13.65;;;;;;;;;;4995549;28;19917;-78
2023/04/04 05:09:44;;;;;;;31.70;22.88;;;;;;;;;;4998308;28;20084;-77
2023/04/04 05:12:11;;;;;;;13.68;10.13;;;;;;;;;;4991460;28;20030;-76
2023/04/04 05:14:44;;;;;;;10.52;6.80;;;;;;;;;;4976170;28;20125;-76
2023/04/04 05:17:10;;;;;;;;;;;;;;;;;;4976040;28;20041;-77
2023/04/04 05:19:35;;;;;;;19.40;15.07;;;;;;;;;;5022991;28;20312;-76
2023/04/04 05:22:02;;;;;;;;;;;;;;;;;;4980701;28;20097;-76
2023/04/04 05:24:42;;;;;;;10.18;7.03;;;;;;;;;;5023411;28;20388;-78
2023/04/04 05:27:10;;;;;;;17.30;14.48;;;;;;;;;;4975590;28;20160;-78
2023/04/04 05:29:41;;;;;;;21.30;15.15;;;;;;;;;;4992649;28;20022;-78
2023/04/04 05:32:07;;;;;;;;;;;;;;;;;;4960303;28;20441;-78
2023/04/04 05:34:34;;;;;;;;;;;;;;;;;;4992255;28;20015;-78
2023/04/04 05:37:04;;;;;;;20.63;14.25;;;;;;;;;;4981874;28;20003;-78
2023/04/04 05:39:32;;;;;;;22.02;16.25;;;;;;;;;;4973454;28;20042;-76
2023/04/04 05:42:02;;;;;;;25.92;15.50;;;;;;;;;;4979979;28;20568;-76
2023/04/04 05:44:32;;;;;;;22.48;15.73;;;;;;;;;;4998018;28;20126;-79
2023/04/04 05:46:58;;;;;;;;;;;;;;;;;;4980091;28;20124;-77
2023/04/04 05:49:25;;;;;;;21.60;16.70;;;;;;;;;;4997705;28;19910;-77
2023/04/04 05:51:55;;;;;;;22.00;17.42;;;;;;;;;;5000551;28;20559;-75
2023/04/04 05:54:21;;;;;;;21.88;17.70;;;;;;;;;;4996081;28;20153;-76
2023/04/04 05:56:47;;;;;;;;;;;;;;;;;;4997577;28;20035;-76
2023/04/04 05:59:21;;;;;;;11.63;8.00;;;;;;;;;;5018610;28;19949;-76
2023/04/04 06:01:53;;;;;;;19.05;14.45;;;;;;;;;;4995463;28;20084;-77
2023/04/04 06:04:18;;;;;;;;;;;;;;;;;;4981598;28;20125;-77
2023/04/04 06:06:45;;;;;;;16.42;12.63;;;;;;;;;;5010478;28;19922;-77
2023/04/04 06:09:10;;;;;;;18.98;15.60;;;;;;;;;;4982231;28;20418;-75
2023/04/04 06:11:36;;;;;;;;;;;;;;;;;;4994272;28;20030;-78
2023/04/04 06:14:07;;;;;;;23.60;18.55;;;;;;;;;;4998046;28;19909;-76
2023/04/04 06:16:34;;;;;;;15.75;12.02;;;;;;;;;;4997146;28;20038;-77
2023/04/04 06:18:59;;;;;;;17.23;13.88;;;;;;;;;;4998900;28;20049;-77
2023/04/04 06:21:25;;;;;;;;;;;;;;;;;;4995488;28;20444;-77
2023/04/04 06:23:51;;;;;;;20.35;15.05;;;;;;;;;;4979610;28;19916;-76
2023/04/04 06:26:16;;;;;;;;;;;;;;;;;;4995075;28;20508;-75
2023/04/04 06:28:47;;;;;;;21.08;17.00;;;;;;;;;;4995709;28;20320;-78
2023/04/04 06:31:14;;;;;;;24.58;18.42;;;;;;;;;;4994593;28;20489;-77
2023/04/04 06:33:39;;;;;;;;;;;;;;;;;;4977610;28;20046;-78
2023/04/04 06:36:05;;;;;;;18.17;12.40;;;;;;;;;;4997095;28;19914;-78
2023/04/04 06:38:31;;;;;;;;;;;;;;;;;;4999709;28;20029;-77
2023/04/04 06:40:59;;;;;;;20.67;16.35;;;;;;;;;;4993373;28;20008;-77
2023/04/04 06:43:25;;;;;;;;;;;;;;;;;;4997990;28;20537;-76
2023/04/04 06:45:51;;;;;;;17.83;14.85;;;;;;;;;;4997474;28;19918;-78
2023/04/04 06:48:18;;;;;;;21.77;14.82;;;;;;;;;;4999572;28;20029;-77
2023/04/04 06:50:43;;;;;;;;;;;;;;;;;;5004238;28;20042;-77
2023/04/04 06:53:13;;;;;;;22.83;15.48;;;;;;;;;;4998154;28;19921;-78
2023/04/04 06:55:39;;;;;;;21.88;16.05;;;;;;;;;;5003060;28;20049;-77
2023/04/04 06:58:04;;;;;;;;;;;;;;;;;;4995595;28;20022;-78
2023/04/04 07:00:30;;;;;;;19.90;13.10;;;;;;;;;;4977904;28;19941;-77
2023/04/04 07:02:55;;;;;;;;;;;;;;;;;;4997414;28;20041;-75
2023/04/04 07:05:21;;;;;;;11.75;8.52;;;;;;;;;;4998612;28;19914;-77
2023/04/04 07:07:46;;;;;;;;;;;;;;;;;;4987345;28;20531;-78
2023/04/04 07:10:12;;;;;;;9.23;7.10;;;;;;;;;;5002048;28;19945;-77
2023/04/04 07:12:37;;;;;;;;;;;;;;;;;;4998618;28;20041;-77
2023/04/04 07:15:02;;;;;;;13.88;10.23;;;;;;;;;;4994348;28;20305;-77
2023/04/04 07:17:28;;;;;;;;;;;;;;;;;;5005409;28;20457;-77
2023/04/04 07:19:54;;;;;;;14.93;11.98;;;;;;;;;;5001961;28;19918;-77
2023/04/04 07:22:19;;;;;;;;;;;;;;;;;;5007223;28;20065;-77
2023/04/04 07:24:47;;;;;;;16.42;11.77;;;;;;;;;;4996950;28;19945;-79
2023/04/04 07:27:14;;;;;;;16.58;11.93;;;;;;;;;;4996965;28;20045;-76
2023/04/04 07:29:42;;;;;;;14.75;11.40;;;;;;;;;;4993695;28;20038;-78
2023/04/04 07:32:08;;;;;;;12.88;9.80;;;;;;;;;;4997104;28;20021;-78
2023/04/04 07:34:33;;;;;;;13.73;10.10;;;;;;;;;;4950093;28;1335665;-77
2023/04/04 07:36:59;;;;;;;;;;;;;;;;;;5000945;28;20029;-77
2023/04/04 07:39:24;;;;;;;13.80;10.00;;;;;;;;;;5001301;28;20305;-76
2023/04/04 07:41:49;;;;;;;;;;;;;;;;;;5007685;28;20034;-76
2023/04/04 07:44:15;;;;;;;12.07;9.48;;;;;;;;;;5026434;28;19914;-76
2023/04/04 07:46:40;;;;;;;;;;;;;;;;;;5000901;28;20533;-76
2023/04/04 07:49:06;;;;;;;14.82;8.30;;;;;;;;;;5002252;28;19956;-78
2023/04/04 07:51:31;;;;;;;;;;;;;;;;;;5000378;28;20477;-78
2023/04/04 07:53:57;;;;;;;19.75;12.95;;;;;;;;;;5024279;28;19918;-79
2023/04/04 07:56:22;;;;;;;;;;;;;;;;;;5001976;28;20516;-78
2023/04/04 07:58:48;;;;;;;8.63;5.75;;;;;;;;;;5002082;28;19913;-78
2023/04/04 08:01:13;;;;;;;18.38;12.48;;;;;;;;;;4981017;28;20065;-79
2023/04/04 08:03:39;;;;;;;17.55;11.70;;;;;;;;;;5005146;28;20103;-76
2023/04/04 08:06:06;;;;;;;20.83;12.68;;;;;;;;;;4991120;28;20086;-79
2023/04/04 08:08:31;;;;;;;22.75;11.90;;;;;;;;;;5000255;28;20023;-78
2023/04/04 08:10:57;;;;;;;17.58;10.18;;;;;;;;;;5004863;28;20164;-78
2023/04/04 08:13:23;;;;;;;14.93;9.32;;;;;;;;;;5002638;28;20030;-77
2023/04/04 08:15:48;;;;;;;17.65;9.27;;;;;;;;;;4999836;28;20429;-78
2023/04/04 08:18:14;;;;;;;15.35;8.93;;;;;;;;;;4993770;28;20504;-78
2023/04/04 08:20:39;;;;;;;14.93;10.50;;;;;;;;;;4999567;28;20585;-78
2023/04/04 08:23:05;;;;;;;17.48;10.15;;;;;;;;;;4998562;28;20509;-76
2023/04/04 08:25:30;;;;;;;17.65;11.00;;;;;;;;;;4993017;28;20071;-77
2023/04/04 08:27:56;;;;;;;18.45;11.57;;;;;;;;;;4992273;28;20034;-79
2023/04/04 08:30:22;;;;;;;15.80;10.98;;;;;;;;;;4993920;28;20073;-77
2023/04/04 08:32:48;;;;;;;17.90;11.05;;;;;;;;;;4993398;28;20038;-78
2023/04/04 08:35:14;;;;;;;13.75;10.32;;;;;;;;;;4993965;28;20034;-77
2023/04/04 08:37:43;;;;;;;13.13;7.00;;;;;;;;;;4992730;28;20069;-78
2023/04/04 08:40:09;;;;;;;16.40;6.72;;;;;;;;;;4996337;28;20117;-78
2023/04/04 08:42:35;;;;;;;15.23;7.28;;;;;;;;;;5006074;28;20524;-79
2023/04/04 08:45:02;;;;;;;16.02;8.30;;;;;;;;;;4995842;28;20065;-80
2023/04/04 08:47:29;;;;;;;13.77;7.93;;;;;;;;;;4974890;28;20030;-78
2023/04/04 08:49:55;;;;;;;15.57;7.07;;;;;;;;;;4990836;28;20529;-77
2023/04/04 08:52:21;;;;;;;12.75;7.00;;;;;;;;;;4994505;28;20507;-78
2023/04/04 08:54:47;;;;;;;9.25;6.47;;;;;;;;;;4988987;28;20110;-77
2023/04/04 08:57:12;;;;;;;14.70;9.00;;;;;;;;;;4978677;28;20072;-78
2023/04/04 08:59:38;;;;;;;16.88;8.95;;;;;;;;;;4992900;28;20133;-76
2023/04/04 09:02:14;;;;;;;14.98;9.20;;;;;;;;;;4991686;28;20117;-78
2023/04/04 09:04:40;;;;;;;17.02;8.45;;;;;;;;;;4988798;28;20038;-78
2023/04/04 09:07:05;;;;;;;16.50;7.80;;;;;;;;;;5001462;28;20605;-79
2023/04/04 09:09:31;;;;;;;11.82;6.50;;;;;;;;;;4973527;28;20035;-78
2023/04/04 09:11:59;;;;;;;11.10;6.00;;;;;;;;;;4984434;28;20034;-78
2023/04/04 09:14:26;;;;;;;9.68;4.90;;;;;;;;;;4991170;28;20026;-78
2023/04/04 09:16:52;;;;;;;13.82;6.22;;;;;;;;;;4993209;28;20089;-78
2023/04/04 09:19:17;;;;;;;13.18;5.95;;;;;;;;;;4998946;28;20034;-78
2023/04/04 09:21:46;;;;;;;7.50;5.15;;;;;;;;;;4997527;28;20433;-77
2023/04/04 09:24:12;;;;;;;10.45;6.18;;;;;;;;;;4998861;28;20120;-77
2023/04/04 09:26:47;;;;;;;12.07;6.60;;;;;;;;;;4991676;28;20128;-77
2023/04/04 09:29:13;;;;;;;10.35;5.97;;;;;;;;;;4991477;28;20052;-77
2023/04/04 09:31:39;;;;;;;12.25;6.18;;;;;;;;;;4993049;28;20030;-76
2023/04/04 09:34:04;;;;;;;11.98;5.82;;;;;;;;;;4991324;28;20112;-78
2023/04/04 09:36:30;;;;;;;10.13;5.80;;;;;;;;;;4975496;28;20038;-78
2023/04/04 09:38:55;;;;;;;12.30;6.03;;;;;;;;;;4992221;28;20057;-79
2023/04/04 09:41:21;;;;;;;10.50;6.00;;;;;;;;;;4998334;28;20088;-77
2023/04/04 09:43:47;;;;;;;11.40;6.28;;;;;;;;;;4991060;28;20560;-76
2023/04/04 09:46:14;;;;;;;9.18;6.00;;;;;;;;;;4991964;28;20042;-79
2023/04/04 09:49:04;;;;;;;12.40;6.25;;;;;;;;;;4992927;28;20053;-77
2023/04/04 09:51:37;;;;;;;11.98;6.18;;;;;;;;;;4994661;28;20113;-76
2023/04/04 09:54:05;;;;;;;15.98;5.68;;;;;;;;;;4975053;28;20104;-76
2023/04/04 09:56:32;;;;;;;7.95;4.95;;;;;;;;;;4972205;28;20026;-78
2023/04/04 09:58:57;;;;;;;9.23;4.60;;;;;;;;;;4995966;28;20065;-76
2023/04/04 10:01:23;;;;;;;9.43;4.95;;;;;;;;;;4996417;28;20026;-77
2023/04/04 10:03:54;;;;;;;8.48;4.72;;;;;;;;;;4976274;28;20034;-78
2023/04/04 10:06:21;;;;;;;6.43;4.78;;;;;;;;;;4992562;28;20073;-77
2023/04/04 10:08:47;;;;;;;11.48;5.10;;;;;;;;;;4980187;28;20030;-77
2023/04/04 10:11:12;;;;;;;10.35;5.40;;;;;;;;;;4990948;28;20509;-78
2023/04/04 10:13:42;;;;;;;11.70;5.78;;;;;;;;;;4990436;28;20490;-78
2023/04/04 10:16:09;;;;;;;12.90;5.68;;;;;;;;;;4997297;28;20061;-75
2023/04/04 10:18:35;;;;;;;8.90;5.38;;;;;;;;;;4998874;28;20406;-78
2023/04/04 10:21:03;;;;;;;9.65;5.28;;;;;;;;;;4998571;28;20035;-77
2023/04/04 10:23:29;;;;;;;10.70;5.28;;;;;;;;;;4997509;28;20021;-76
2023/04/04 10:25:57;;;;;;;10.35;5.00;;;;;;;;;;4991878;28;20092;-77
2023/04/04 10:28:23;;;;;;;12.75;5.85;;;;;;;;;;4975229;28;20027;-77
2023/04/04 10:30:49;;;;;;;9.68;5.53;;;;;;;;;;4994807;28;20038;-78
2023/04/04 10:33:37;;;;;;;10.98;5.38;;;;;;;;;;5001532;28;20054;-75
2023/04/04 10:36:03;;;;;;;16.65;5.72;;;;;;;;;;4988596;28;20046;-77
2023/04/04 10:38:30;;;;;;;14.63;5.47;;;;;;;;;;4995099;28;20394;-77
2023/04/04 10:40:58;;;;;;;11.60;5.25;;;;;;;;;;4979231;28;20050;-77
2023/04/04 10:43:25;;;;;;;11.20;4.90;;;;;;;;;;5004764;28;20482;-77
2023/04/04 10:45:50;;;;;;;9.65;4.40;;;;;;;;;;4990867;28;20030;-78
2023/04/04 10:48:16;;;;;;;20.85;5.65;;;;;;;;;;4985486;28;20400;-78
2023/04/04 10:50:41;;;;;;;19.60;5.30;;;;;;;;;;4983318;28;20498;-78
2023/04/04 10:53:07;;;;;;;9.45;4.38;;;;;;;;;;4977645;28;20051;-80
2023/04/04 10:55:32;;;;;;;9.10;4.43;;;;;;;;;;4976866;28;20458;-78
2023/04/04 10:57:58;;;;;;;7.57;4.28;;;;;;;;;;4994125;28;20559;-79
2023/04/04 11:00:23;;;;;;;8.63;3.80;;;;;;;;;;5003434;28;20037;-78
2023/04/04 11:02:51;;;;;;;12.02;4.40;;;;;;;;;;4977515;28;20036;-79
2023/04/04 11:05:17;;;;;;;9.88;3.90;;;;;;;;;;5000068;28;20037;-78
2023/04/04 11:07:43;;;;;;;5.70;3.28;;;;;;;;;;4996158;28;20393;-78
2023/04/04 11:10:13;;;;;;;6.93;3.17;;;;;;;;;;4994746;28;20034;-78
2023/04/04 11:12:43;;;;;;;8.05;3.60;;;;;;;;;;4991856;28;20022;-78
2023/04/04 11:15:09;;;;;;;11.05;3.90;;;;;;;;;;4962472;28;20030;-78
2023/04/04 11:17:42;;;;;;;10.68;3.10;;;;;;;;;;4995066;28;20076;-79
2023/04/04 11:20:13;;;;;;;21.73;3.88;;;;;;;;;;4997676;28;20041;-78
2023/04/04 11:22:40;;;;;;;12.43;3.42;;;;;;;;;;4999874;28;20037;-79
2023/04/04 11:25:23;;;;;;;6.85;3.10;;;;;;;;;;4981002;28;20026;-78
2023/04/04 11:27:52;;;;;;;7.47;3.17;;;;;;;;;;4991117;28;20038;-78
2023/04/04 11:30:19;;;;;;;7.95;3.40;;;;;;;;;;4999816;28;20085;-77
2023/04/04 11:32:47;;;;;;;10.10;3.63;;;;;;;;;;5003846;28;20041;-77
2023/04/04 11:35:14;;;;;;;9.43;3.45;;;;;;;;;;4996653;28;20034;-78
2023/04/04 11:37:52;;;;;;;10.73;3.60;;;;;;;;;;5004511;28;20117;-79
2023/04/04 11:40:18;;;;;;;8.30;3.53;;;;;;;;;;5002756;28;20136;-79
2023/04/04 11:42:43;;;;;;;8.00;3.30;;;;;;;;;;4996518;28;20113;-78
2023/04/04 11:45:09;;;;;;;7.18;3.95;;;;;;;;;;5001465;28;20040;-78
2023/04/04 11:47:35;;;;;;;7.53;3.90;;;;;;;;;;5006146;28;20405;-77
2023/04/04 11:50:01;;;;;;;5.65;3.35;;;;;;;;;;4985653;28;20069;-82
2023/04/04 11:52:32;;;;;;;6.28;3.25;;;;;;;;;;5002795;28;20033;-83
2023/04/04 11:54:58;;;;;;;8.27;3.40;;;;;;;;;;4979622;28;20057;-82
2023/04/04 11:57:23;;;;;;;6.40;3.28;;;;;;;;;;5001226;28;20079;-83
2023/04/04 11:59:49;;;;;;;6.65;3.10;;;;;;;;;;4959283;28;20433;-83
2023/04/04 12:02:18;;;;;;;5.57;3.13;;;;;;;;;;4975679;28;20271;-83
2023/04/04 12:04:44;;;;;;;6.15;3.58;;;;;;;;;;4995821;28;20042;-83
2023/04/04 12:07:10;;;;;;;7.88;3.22;;;;;;;;;;4998132;28;20037;-83
2023/04/04 12:09:36;;;;;;;7.55;3.60;;;;;;;;;;5001825;28;20118;-82
2023/04/04 12:12:02;;;;;;;6.03;3.30;;;;;;;;;;4992424;28;20026;-82
2023/04/04 12:14:27;;;;;;;9.20;3.05;;;;;;;;;;4980285;28;20045;-82
2023/04/04 12:16:53;;;;;;;6.57;3.28;;;;;;;;;;4993396;28;20030;-82
2023/04/04 12:19:19;;;;;;;5.85;3.03;;;;;;;;;;5004810;28;20034;-82
2023/04/04 12:21:45;;;;;;;6.72;3.40;;;;;;;;;;5010172;28;20145;-83
2023/04/04 12:24:11;;;;;;;5.30;3.10;;;;;;;;;;4983478;28;20030;-85
2023/04/04 12:26:37;;;;;;;7.05;3.22;;;;;;;;;;4995992;28;20036;-82
2023/04/04 12:29:02;;;;;;;8.13;3.75;;;;;;;;;;4996253;28;20488;-83
2023/04/04 12:31:28;;;;;;;6.90;3.47;;;;;;;;;;4993261;28;20030;-82
2023/04/04 12:33:53;;;;;;;6.78;3.30;;;;;;;;;;4982736;28;20077;-83
2023/04/04 12:36:19;;;;;;;10.77;3.55;;;;;;;;;;4992645;28;20034;-82
2023/04/04 12:38:55;;;;;;;9.38;3.13;;;;;;;;;;4992085;28;20045;-83
2023/04/04 12:41:21;;;;;;;7.82;3.40;;;;;;;;;;4999371;28;20477;-83
2023/04/04 12:43:47;;;;;;;7.07;3.00;;;;;;;;;;4987129;28;20032;-83
2023/04/04 12:46:13;;;;;;;5.60;2.75;;;;;;;;;;4981803;28;20034;-84
2023/04/04 12:48:38;;;;;;;14.00;4.18;;;;;;;;;;4995356;28;20026;-83
2023/04/04 12:51:04;;;;;;;11.85;3.30;;;;;;;;;;4991255;28;20042;-83
2023/04/04 12:53:31;;;;;;;8.02;3.22;;;;;;;;;;4991155;28;20512;-83
2023/04/04 12:56:03;;;;;;;9.90;3.50;;;;;;;;;;4992543;28;20466;-83
2023/04/04 12:58:29;;;;;;;6.07;2.97;;;;;;;;;;4974451;28;20034;-83
2023/04/04 13:00:55;;;;;;;5.80;2.70;;;;;;;;;;5002305;28;20041;-83
2023/04/04 13:03:21;;;;;;;7.97;3.05;;;;;;;;;;4993216;28;20407;-82
2023/04/04 13:05:47;;;;;;;7.30;3.40;;;;;;;;;;4996055;28;20431;-82
2023/04/04 13:08:12;;;;;;;11.77;3.63;;;;;;;;;;4999300;28;20034;-83
2023/04/04 13:10:57;;;;;;;11.70;3.40;;;;;;;;;;4974052;28;20034;-83
2023/04/04 13:13:35;;;;;;;5.63;2.80;;;;;;;;;;4989909;28;20027;-82
2023/04/04 13:16:00;;;;;;;5.68;3.10;;;;;;;;;;5005563;28;20198;-83
2023/04/04 13:18:31;;;;;;;7.25;3.10;;;;;;;;;;4978081;28;20542;-83
2023/04/04 13:20:56;;;;;;;9.07;3.25;;;;;;;;;;4974138;28;20158;-83
2023/04/04 13:23:22;;;;;;;7.35;3.10;;;;;;;;;;4992959;28;20109;-84
2023/04/04 13:25:47;;;;;;;15.70;3.47;;;;;;;;;;4999151;28;20431;-83
2023/04/04 13:28:13;;;;;;;5.25;2.75;;;;;;;;;;4994986;28;20038;-84
2023/04/04 13:30:42;;;;;;;10.40;4.07;;;;;;;;;;5000681;28;20073;-83
2023/04/04 13:33:08;;;;;;;9.98;3.33;;;;;;;;;;4994682;28;20085;-83
2023/04/04 13:35:33;;;;;;;8.57;3.20;;;;;;;;;;5005319;28;20030;-83
2023/04/04 13:38:00;;;;;;;8.93;3.35;;;;;;;;;;4998243;28;20044;-83
2023/04/04 13:40:26;;;;;;;15.10;5.13;;;;;;;;;;5003343;28;20030;-83
2023/04/04 13:42:51;;;;;;;6.40;2.92;;;;;;;;;;4998163;28;20061;-83
2023/04/04 13:45:17;;;;;;;11.35;4.78;;;;;;;;;;5002526;28;20038;-82
2023/04/04 13:47:42;;;;;;;13.40;4.60;;;;;;;;;;4992721;28;20117;-83
2023/04/04 13:50:08;;;;;;;9.90;3.70;;;;;;;;;;5001114;28;20033;-83
2023/04/04 13:52:33;;;;;;;8.40;3.95;;;;;;;;;;4987035;28;20410;-83
2023/04/04 13:55:00;;;;;;;11.95;3.90;;;;;;;;;;4999754;28;20034;-84
2023/04/04 13:57:27;;;;;;;16.27;4.85;;;;;;;;;;4993754;28;20029;-83
2023/04/04 13:59:55;;;;;;;7.43;3.92;;;;;;;;;;4978897;28;20027;-83
2023/04/04 14:02:21;;;;;;;8.43;3.38;;;;;;;;;;4995099;28;20030;-83
2023/04/04 14:04:46;;;;;;;35.13;6.70;;;;;;;;;;5000998;28;20504;-82
2023/04/04 14:07:12;;;;;;;12.60;4.18;;;;;;;;;;4981699;28;20035;-84
2023/04/04 14:09:37;;;;;;;34.22;5.65;;;;;;;;;;4989074;28;20032;-83
2023/04/04 14:12:03;;;;;;;14.32;4.60;;;;;;;;;;4995855;28;20030;-83
2023/04/04 14:14:29;;;;;;;6.75;3.13;;;;;;;;;;4994931;28;20109;-83
2023/04/04 14:16:55;;;;;;;10.10;4.10;;;;;;;;;;4975036;28;20841;-83
2023/04/04 14:19:21;;;;;;;9.35;4.35;;;;;;;;;;4999686;28;20033;-83
2023/04/04 14:21:49;;;;;;;22.17;5.63;;;;;;;;;;4998631;28;20027;-82
2023/04/04 14:24:15;;;;;;;14.05;4.57;;;;;;;;;;4996484;28;20018;-82
2023/04/04 14:26:41;;;;;;;9.38;4.05;;;;;;;;;;5002435;28;20053;-82
2023/04/04 14:29:07;;;;;;;13.15;5.78;;;;;;;;;;4997552;28;20030;-82
2023/04/04 14:31:33;;;;;;;10.82;4.03;;;;;;;;;;5002340;28;20498;-82
2023/04/04 14:33:59;;;;;;;20.25;4.80;;;;;;;;;;4982883;28;20141;-82
2023/04/04 14:36:25;;;;;;;13.82;5.30;;;;;;;;;;4982806;28;20145;-82
2023/04/04 14:38:50;;;;;;;15.68;5.47;;;;;;;;;;5006781;28;20506;-82
2023/04/04 14:41:16;;;;;;;13.75;4.57;;;;;;;;;;5005502;28;20033;-82